createdAt,value
2022-12-31T00:27:35.167Z,13.54
2022-12-31T00:47:35.121Z,13.22
2022-12-31T01:07:35.076Z,12.83
2022-12-31T01:27:35.057Z,12.57
2022-12-31T01:47:35.017Z,12.81
2022-12-31T02:07:34.979Z,13.04
2022-12-31T02:27:34.943Z,13.75
2022-12-31T02:47:34.919Z,14.71
2022-12-31T03:07:34.899Z,14.98
2022-12-31T04:47:34.764Z,15.39
2022-12-31T05:07:34.675Z,15.85
2022-12-31T05:27:34.670Z,16.23
2022-12-31T05:47:34.661Z,16.53
2022-12-31T06:07:34.571Z,16.74
2022-12-31T06:47:34.525Z,16.77
2022-12-31T07:07:34.489Z,16.79
2022-12-31T07:47:34.433Z,16.94
2022-12-31T08:07:34.398Z,17.1
2022-12-31T08:27:34.350Z,17.14
2022-12-31T08:47:38.377Z,17.31
2022-12-31T09:07:34.295Z,17.43
2022-12-31T09:27:34.249Z,17.47
2022-12-31T09:47:34.271Z,17.46
2022-12-31T10:07:34.213Z,17.44
2022-12-31T10:27:34.165Z,17.46
2022-12-31T10:47:34.116Z,17.68
2022-12-31T11:27:34.058Z,17.94
2022-12-31T11:47:35.680Z,17.79
2022-12-31T12:07:33.979Z,17.74
2022-12-31T12:27:33.981Z,17.65
2022-12-31T12:47:33.919Z,16.83
2022-12-31T13:07:33.864Z,16.49
2022-12-31T13:27:33.878Z,16.7
2022-12-31T13:47:33.803Z,17
2022-12-31T14:07:37.713Z,17.14
2022-12-31T14:27:33.737Z,17.14
2022-12-31T14:47:33.710Z,17.03
2022-12-31T15:07:33.714Z,16.66
2022-12-31T15:27:33.645Z,16.22
2022-12-31T15:47:33.616Z,16.13
2022-12-31T16:07:33.570Z,16.41
2022-12-31T16:47:33.506Z,16.73
2022-12-31T17:07:33.472Z,16.57
2022-12-31T17:27:33.506Z,16.42
2022-12-31T17:47:33.389Z,16.37
2022-12-31T18:07:33.363Z,16.36
2022-12-31T18:27:33.328Z,16.47
2022-12-31T18:47:37.579Z,16.26
2022-12-31T19:07:33.289Z,16.33
2022-12-31T19:27:33.228Z,16.47
2022-12-31T19:47:33.223Z,16.5
2022-12-31T20:07:33.170Z,16.44
2022-12-31T21:07:33.052Z,16.77
2022-12-31T22:07:32.961Z,16.98
2022-12-31T22:47:32.886Z,17.03
2022-12-31T23:07:32.863Z,17.14
2022-12-31T23:27:32.800Z,17.1
